sensor_id;sensor_type;location;lat;lon;timestamp;P1;durP1;ratioP1;P2;durP2;ratioP2
28003;SDS011;15330;51.234;6.754;2023-11-21T00:01:53;19.40;;;9.10;;
28003;SDS011;15330;51.234;6.754;2023-11-21T00:04:19;17.00;;;8.52;;
28003;SDS011;15330;51.234;6.754;2023-11-21T00:06:44;18.38;;;8.60;;
28003;SDS011;15330;51.234;6.754;2023-11-21T00:09:12;15.45;;;8.35;;
28003;SDS011;15330;51.234;6.754;2023-11-21T00:11:38;23.58;;;9.02;;
28003;SDS011;15330;51.234;6.754;2023-11-21T00:14:03;19.23;;;9.38;;
28003;SDS011;15330;51.234;6.754;2023-11-21T00:16:29;24.63;;;9.30;;
28003;SDS011;15330;51.234;6.754;2023-11-21T00:18:54;23.10;;;9.00;;
28003;SDS011;15330;51.234;6.754;2023-11-21T00:21:20;17.60;;;10.23;;
28003;SDS011;15330;51.234;6.754;2023-11-21T00:23:45;23.48;;;9.20;;
28003;SDS011;15330;51.234;6.754;2023-11-21T00:26:10;22.30;;;10.57;;
28003;SDS011;15330;51.234;6.754;2023-11-21T00:28:36;22.83;;;11.73;;
28003;SDS011;15330;51.234;6.754;2023-11-21T00:31:01;23.80;;;11.68;;
28003;SDS011;15330;51.234;6.754;2023-11-21T00:33:26;33.90;;;13.50;;
28003;SDS011;15330;51.234;6.754;2023-11-21T00:35:52;29.45;;;14.35;;
28003;SDS011;15330;51.234;6.754;2023-11-21T00:38:17;28.63;;;14.85;;
28003;SDS011;15330;51.234;6.754;2023-11-21T00:40:45;28.65;;;14.07;;
28003;SDS011;15330;51.234;6.754;2023-11-21T00:43:10;34.38;;;15.43;;
28003;SDS011;15330;51.234;6.754;2023-11-21T00:45:36;26.90;;;15.10;;
28003;SDS011;15330;51.234;6.754;2023-11-21T00:48:01;30.33;;;16.45;;
28003;SDS011;15330;51.234;6.754;2023-11-21T00:50:29;32.47;;;16.15;;
28003;SDS011;15330;51.234;6.754;2023-11-21T00:52:54;33.92;;;16.27;;
28003;SDS011;15330;51.234;6.754;2023-11-21T00:55:20;32.15;;;14.70;;
28003;SDS011;15330;51.234;6.754;2023-11-21T00:57:46;33.15;;;15.90;;
28003;SDS011;15330;51.234;6.754;2023-11-21T01:00:11;34.40;;;15.60;;
28003;SDS011;15330;51.234;6.754;2023-11-21T01:02:42;33.60;;;16.33;;
28003;SDS011;15330;51.234;6.754;2023-11-21T01:05:09;32.65;;;15.77;;
28003;SDS011;15330;51.234;6.754;2023-11-21T01:07:34;30.30;;;15.15;;
28003;SDS011;15330;51.234;6.754;2023-11-21T01:10:01;34.22;;;15.02;;
28003;SDS011;15330;51.234;6.754;2023-11-21T01:12:27;29.60;;;15.82;;
28003;SDS011;15330;51.234;6.754;2023-11-21T01:14:52;32.20;;;16.50;;
28003;SDS011;15330;51.234;6.754;2023-11-21T01:17:18;29.30;;;15.13;;
28003;SDS011;15330;51.234;6.754;2023-11-21T01:19:43;32.47;;;15.10;;
28003;SDS011;15330;51.234;6.754;2023-11-21T01:22:09;33.78;;;14.95;;
28003;SDS011;15330;51.234;6.754;2023-11-21T01:24:36;34.55;;;15.02;;
28003;SDS011;15330;51.234;6.754;2023-11-21T01:27:02;34.40;;;16.73;;
28003;SDS011;15330;51.234;6.754;2023-11-21T01:29:29;31.95;;;15.43;;
28003;SDS011;15330;51.234;6.754;2023-11-21T01:31:55;32.28;;;14.90;;
28003;SDS011;15330;51.234;6.754;2023-11-21T01:34:22;31.77;;;15.38;;
28003;SDS011;15330;51.234;6.754;2023-11-21T01:36:48;43.03;;;15.43;;
28003;SDS011;15330;51.234;6.754;2023-11-21T01:39:13;32.80;;;15.95;;
28003;SDS011;15330;51.234;6.754;2023-11-21T01:41:40;36.28;;;15.40;;
28003;SDS011;15330;51.234;6.754;2023-11-21T01:44:06;42.15;;;16.23;;
28003;SDS011;15330;51.234;6.754;2023-11-21T01:46:34;37.38;;;17.63;;
28003;SDS011;15330;51.234;6.754;2023-11-21T01:49:00;39.70;;;17.40;;
28003;SDS011;15330;51.234;6.754;2023-11-21T01:51:25;35.88;;;18.27;;
28003;SDS011;15330;51.234;6.754;2023-11-21T01:53:51;34.72;;;18.17;;
28003;SDS011;15330;51.234;6.754;2023-11-21T01:56:17;33.50;;;17.50;;
28003;SDS011;15330;51.234;6.754;2023-11-21T01:58:43;36.33;;;18.45;;
28003;SDS011;15330;51.234;6.754;2023-11-21T02:01:08;35.28;;;17.15;;
28003;SDS011;15330;51.234;6.754;2023-11-21T02:03:35;36.15;;;17.65;;
28003;SDS011;15330;51.234;6.754;2023-11-21T02:06:01;39.45;;;17.83;;
28003;SDS011;15330;51.234;6.754;2023-11-21T02:08:26;31.70;;;17.27;;
28003;SDS011;15330;51.234;6.754;2023-11-21T02:10:52;34.67;;;18.20;;
28003;SDS011;15330;51.234;6.754;2023-11-21T02:13:17;37.25;;;17.92;;
28003;SDS011;15330;51.234;6.754;2023-11-21T02:15:43;32.47;;;17.85;;
28003;SDS011;15330;51.234;6.754;2023-11-21T02:18:08;35.92;;;16.67;;
28003;SDS011;15330;51.234;6.754;2023-11-21T02:20:36;35.78;;;17.38;;
28003;SDS011;15330;51.234;6.754;2023-11-21T02:23:04;33.15;;;17.13;;
28003;SDS011;15330;51.234;6.754;2023-11-21T02:25:31;34.95;;;18.83;;
28003;SDS011;15330;51.234;6.754;2023-11-21T02:27:58;32.30;;;17.30;;
28003;SDS011;15330;51.234;6.754;2023-11-21T02:30:27;31.98;;;17.55;;
28003;SDS011;15330;51.234;6.754;2023-11-21T02:32:53;30.85;;;17.02;;
28003;SDS011;15330;51.234;6.754;2023-11-21T02:35:19;34.53;;;17.35;;
28003;SDS011;15330;51.234;6.754;2023-11-21T02:37:47;35.70;;;17.48;;
28003;SDS011;15330;51.234;6.754;2023-11-21T02:40:13;33.88;;;18.02;;
28003;SDS011;15330;51.234;6.754;2023-11-21T02:42:42;33.03;;;17.13;;
28003;SDS011;15330;51.234;6.754;2023-11-21T02:45:12;34.13;;;17.65;;
28003;SDS011;15330;51.234;6.754;2023-11-21T02:47:39;39.72;;;17.83;;
28003;SDS011;15330;51.234;6.754;2023-11-21T02:50:05;32.80;;;17.52;;
28003;SDS011;15330;51.234;6.754;2023-11-21T02:52:33;30.67;;;18.20;;
28003;SDS011;15330;51.234;6.754;2023-11-21T02:54:58;33.85;;;17.67;;
28003;SDS011;15330;51.234;6.754;2023-11-21T02:57:44;28.02;;;15.90;;
28003;SDS011;15330;51.234;6.754;2023-11-21T03:00:09;35.75;;;17.45;;
28003;SDS011;15330;51.234;6.754;2023-11-21T03:02:37;29.85;;;17.83;;
28003;SDS011;15330;51.234;6.754;2023-11-21T03:05:13;33.00;;;17.50;;
28003;SDS011;15330;51.234;6.754;2023-11-21T03:07:38;33.50;;;19.25;;
28003;SDS011;15330;51.234;6.754;2023-11-21T03:10:04;29.30;;;16.85;;
28003;SDS011;15330;51.234;6.754;2023-11-21T03:12:30;29.92;;;17.88;;
28003;SDS011;15330;51.234;6.754;2023-11-21T03:14:55;30.83;;;16.75;;
28003;SDS011;15330;51.234;6.754;2023-11-21T03:17:20;31.55;;;17.65;;
28003;SDS011;15330;51.234;6.754;2023-11-21T03:19:46;30.58;;;18.17;;
28003;SDS011;15330;51.234;6.754;2023-11-21T03:22:11;35.25;;;17.90;;
28003;SDS011;15330;51.234;6.754;2023-11-21T03:24:37;32.20;;;17.88;;
28003;SDS011;15330;51.234;6.754;2023-11-21T03:27:03;34.90;;;18.38;;
28003;SDS011;15330;51.234;6.754;2023-11-21T03:29:29;34.67;;;19.17;;
28003;SDS011;15330;51.234;6.754;2023-11-21T03:31:54;35.60;;;20.23;;
28003;SDS011;15330;51.234;6.754;2023-11-21T03:34:23;35.55;;;19.23;;
28003;SDS011;15330;51.234;6.754;2023-11-21T03:36:50;34.03;;;19.83;;
28003;SDS011;15330;51.234;6.754;2023-11-21T03:39:16;40.65;;;20.77;;
28003;SDS011;15330;51.234;6.754;2023-11-21T03:41:41;38.88;;;20.77;;
28003;SDS011;15330;51.234;6.754;2023-11-21T03:44:06;35.58;;;19.42;;
28003;SDS011;15330;51.234;6.754;2023-11-21T03:46:32;35.80;;;19.15;;
28003;SDS011;15330;51.234;6.754;2023-11-21T03:48:57;39.78;;;20.83;;
28003;SDS011;15330;51.234;6.754;2023-11-21T03:51:22;40.35;;;21.90;;
28003;SDS011;15330;51.234;6.754;2023-11-21T03:53:48;39.13;;;21.75;;
28003;SDS011;15330;51.234;6.754;2023-11-21T03:56:13;37.28;;;20.33;;
28003;SDS011;15330;51.234;6.754;2023-11-21T03:58:39;44.33;;;21.95;;
28003;SDS011;15330;51.234;6.754;2023-11-21T04:01:05;41.88;;;20.85;;
28003;SDS011;15330;51.234;6.754;2023-11-21T04:03:30;41.65;;;21.20;;
28003;SDS011;15330;51.234;6.754;2023-11-21T04:05:56;47.63;;;22.13;;
28003;SDS011;15330;51.234;6.754;2023-11-21T04:08:22;40.20;;;20.70;;
28003;SDS011;15330;51.234;6.754;2023-11-21T04:10:47;42.10;;;20.88;;
28003;SDS011;15330;51.234;6.754;2023-11-21T04:13:13;40.83;;;21.60;;
28003;SDS011;15330;51.234;6.754;2023-11-21T04:15:38;43.90;;;21.08;;
28003;SDS011;15330;51.234;6.754;2023-11-21T04:18:04;43.92;;;21.05;;
28003;SDS011;15330;51.234;6.754;2023-11-21T04:20:30;37.15;;;19.85;;
28003;SDS011;15330;51.234;6.754;2023-11-21T04:22:55;46.10;;;21.42;;
28003;SDS011;15330;51.234;6.754;2023-11-21T04:25:20;38.88;;;21.88;;
28003;SDS011;15330;51.234;6.754;2023-11-21T04:27:48;36.53;;;20.55;;
28003;SDS011;15330;51.234;6.754;2023-11-21T04:30:14;39.28;;;20.75;;
28003;SDS011;15330;51.234;6.754;2023-11-21T04:32:39;46.40;;;21.13;;
28003;SDS011;15330;51.234;6.754;2023-11-21T04:35:05;47.53;;;20.55;;
28003;SDS011;15330;51.234;6.754;2023-11-21T04:37:31;42.53;;;20.90;;
28003;SDS011;15330;51.234;6.754;2023-11-21T04:39:56;42.80;;;20.25;;
28003;SDS011;15330;51.234;6.754;2023-11-21T04:42:21;48.33;;;20.83;;
28003;SDS011;15330;51.234;6.754;2023-11-21T04:44:47;54.70;;;21.42;;
28003;SDS011;15330;51.234;6.754;2023-11-21T04:47:13;43.67;;;21.48;;
28003;SDS011;15330;51.234;6.754;2023-11-21T04:49:41;43.15;;;20.80;;
28003;SDS011;15330;51.234;6.754;2023-11-21T04:52:07;39.50;;;21.23;;
28003;SDS011;15330;51.234;6.754;2023-11-21T04:54:34;40.90;;;19.65;;
28003;SDS011;15330;51.234;6.754;2023-11-21T04:57:00;44.40;;;21.77;;
28003;SDS011;15330;51.234;6.754;2023-11-21T04:59:26;43.42;;;20.65;;
28003;SDS011;15330;51.234;6.754;2023-11-21T05:01:52;45.33;;;20.75;;
28003;SDS011;15330;51.234;6.754;2023-11-21T05:04:18;43.63;;;21.40;;
28003;SDS011;15330;51.234;6.754;2023-11-21T05:06:44;43.60;;;20.30;;
28003;SDS011;15330;51.234;6.754;2023-11-21T05:09:09;39.92;;;18.92;;
28003;SDS011;15330;51.234;6.754;2023-11-21T05:11:37;39.20;;;19.67;;
28003;SDS011;15330;51.234;6.754;2023-11-21T05:14:02;41.38;;;20.45;;
28003;SDS011;15330;51.234;6.754;2023-11-21T05:16:29;43.78;;;20.73;;
28003;SDS011;15330;51.234;6.754;2023-11-21T05:18:54;42.78;;;21.15;;
28003;SDS011;15330;51.234;6.754;2023-11-21T05:21:25;39.67;;;20.23;;
28003;SDS011;15330;51.234;6.754;2023-11-21T05:23:51;47.90;;;21.35;;
28003;SDS011;15330;51.234;6.754;2023-11-21T05:26:16;42.25;;;20.23;;
28003;SDS011;15330;51.234;6.754;2023-11-21T05:28:41;44.97;;;21.38;;
28003;SDS011;15330;51.234;6.754;2023-11-21T05:31:07;40.33;;;20.63;;
28003;SDS011;15330;51.234;6.754;2023-11-21T05:33:32;43.30;;;21.75;;
28003;SDS011;15330;51.234;6.754;2023-11-21T05:35:58;40.85;;;21.17;;
28003;SDS011;15330;51.234;6.754;2023-11-21T05:38:23;43.08;;;21.90;;
28003;SDS011;15330;51.234;6.754;2023-11-21T05:40:49;39.83;;;18.95;;
28003;SDS011;15330;51.234;6.754;2023-11-21T05:43:15;43.22;;;20.02;;
28003;SDS011;15330;51.234;6.754;2023-11-21T05:45:40;43.80;;;21.55;;
28003;SDS011;15330;51.234;6.754;2023-11-21T05:48:05;37.38;;;20.50;;
28003;SDS011;15330;51.234;6.754;2023-11-21T05:50:31;45.85;;;22.15;;
28003;SDS011;15330;51.234;6.754;2023-11-21T05:52:57;45.00;;;20.70;;
28003;SDS011;15330;51.234;6.754;2023-11-21T05:55:25;46.28;;;20.95;;
28003;SDS011;15330;51.234;6.754;2023-11-21T05:57:50;46.03;;;22.17;;
28003;SDS011;15330;51.234;6.754;2023-11-21T06:00:16;41.70;;;21.27;;
28003;SDS011;15330;51.234;6.754;2023-11-21T06:02:51;42.88;;;22.55;;
28003;SDS011;15330;51.234;6.754;2023-11-21T06:05:18;37.35;;;18.88;;
28003;SDS011;15330;51.234;6.754;2023-11-21T06:07:44;39.80;;;20.13;;
28003;SDS011;15330;51.234;6.754;2023-11-21T06:10:10;43.22;;;20.23;;
28003;SDS011;15330;51.234;6.754;2023-11-21T06:12:37;45.10;;;21.98;;
28003;SDS011;15330;51.234;6.754;2023-11-21T06:15:04;42.03;;;22.00;;
28003;SDS011;15330;51.234;6.754;2023-11-21T06:17:30;44.70;;;21.13;;
28003;SDS011;15330;51.234;6.754;2023-11-21T06:19:56;45.58;;;23.33;;
28003;SDS011;15330;51.234;6.754;2023-11-21T06:22:21;49.17;;;23.55;;
28003;SDS011;15330;51.234;6.754;2023-11-21T06:24:47;46.45;;;23.95;;
28003;SDS011;15330;51.234;6.754;2023-11-21T06:27:12;51.03;;;23.38;;
28003;SDS011;15330;51.234;6.754;2023-11-21T06:29:38;44.90;;;22.42;;
28003;SDS011;15330;51.234;6.754;2023-11-21T06:32:04;53.42;;;23.30;;
28003;SDS011;15330;51.234;6.754;2023-11-21T06:34:30;48.55;;;23.90;;
28003;SDS011;15330;51.234;6.754;2023-11-21T06:36:56;48.67;;;23.48;;
28003;SDS011;15330;51.234;6.754;2023-11-21T06:39:21;58.35;;;24.75;;
28003;SDS011;15330;51.234;6.754;2023-11-21T06:41:48;52.83;;;24.98;;
28003;SDS011;15330;51.234;6.754;2023-11-21T06:44:14;53.05;;;24.48;;
28003;SDS011;15330;51.234;6.754;2023-11-21T06:46:40;53.53;;;23.35;;
28003;SDS011;15330;51.234;6.754;2023-11-21T06:49:07;52.33;;;21.80;;
28003;SDS011;15330;51.234;6.754;2023-11-21T06:51:33;64.55;;;23.80;;
28003;SDS011;15330;51.234;6.754;2023-11-21T06:53:58;58.00;;;22.45;;
28003;SDS011;15330;51.234;6.754;2023-11-21T06:56:23;53.83;;;23.02;;
28003;SDS011;15330;51.234;6.754;2023-11-21T06:58:49;58.70;;;22.10;;
28003;SDS011;15330;51.234;6.754;2023-11-21T07:01:18;62.90;;;23.77;;
28003;SDS011;15330;51.234;6.754;2023-11-21T07:03:44;67.55;;;24.17;;
28003;SDS011;15330;51.234;6.754;2023-11-21T07:06:10;59.20;;;23.02;;
28003;SDS011;15330;51.234;6.754;2023-11-21T07:08:36;65.53;;;25.52;;
28003;SDS011;15330;51.234;6.754;2023-11-21T07:11:02;60.42;;;24.33;;
28003;SDS011;15330;51.234;6.754;2023-11-21T07:13:30;61.03;;;24.00;;
28003;SDS011;15330;51.234;6.754;2023-11-21T07:15:57;57.92;;;22.13;;
28003;SDS011;15330;51.234;6.754;2023-11-21T07:18:24;56.60;;;22.33;;
28003;SDS011;15330;51.234;6.754;2023-11-21T07:20:49;64.53;;;23.30;;
28003;SDS011;15330;51.234;6.754;2023-11-21T07:23:14;74.10;;;26.27;;
28003;SDS011;15330;51.234;6.754;2023-11-21T07:25:40;71.80;;;28.40;;
28003;SDS011;15330;51.234;6.754;2023-11-21T07:28:09;78.85;;;27.90;;
28003;SDS011;15330;51.234;6.754;2023-11-21T07:30:34;66.53;;;25.90;;
28003;SDS011;15330;51.234;6.754;2023-11-21T07:32:59;70.57;;;27.92;;
28003;SDS011;15330;51.234;6.754;2023-11-21T07:35:25;63.17;;;26.00;;
28003;SDS011;15330;51.234;6.754;2023-11-21T07:37:51;69.63;;;28.75;;
28003;SDS011;15330;51.234;6.754;2023-11-21T07:40:17;56.92;;;25.65;;
28003;SDS011;15330;51.234;6.754;2023-11-21T07:42:42;67.57;;;28.48;;
28003;SDS011;15330;51.234;6.754;2023-11-21T07:45:08;67.80;;;29.13;;
28003;SDS011;15330;51.234;6.754;2023-11-21T07:47:33;73.18;;;27.95;;
28003;SDS011;15330;51.234;6.754;2023-11-21T07:49:59;64.40;;;27.75;;
28003;SDS011;15330;51.234;6.754;2023-11-21T07:52:25;74.43;;;30.05;;
28003;SDS011;15330;51.234;6.754;2023-11-21T07:54:50;72.35;;;27.98;;
28003;SDS011;15330;51.234;6.754;2023-11-21T07:57:16;73.25;;;29.95;;
28003;SDS011;15330;51.234;6.754;2023-11-21T07:59:41;73.47;;;29.83;;
28003;SDS011;15330;51.234;6.754;2023-11-21T08:02:07;72.80;;;28.35;;
28003;SDS011;15330;51.234;6.754;2023-11-21T08:04:32;67.10;;;27.33;;
28003;SDS011;15330;51.234;6.754;2023-11-21T08:06:58;71.13;;;28.40;;
28003;SDS011;15330;51.234;6.754;2023-11-21T08:09:23;67.60;;;28.42;;
28003;SDS011;15330;51.234;6.754;2023-11-21T08:11:49;69.28;;;30.60;;
28003;SDS011;15330;51.234;6.754;2023-11-21T08:14:14;67.40;;;28.75;;
28003;SDS011;15330;51.234;6.754;2023-11-21T08:16:40;67.20;;;27.77;;
28003;SDS011;15330;51.234;6.754;2023-11-21T08:19:05;63.70;;;27.98;;
28003;SDS011;15330;51.234;6.754;2023-11-21T08:21:31;68.43;;;28.15;;
28003;SDS011;15330;51.234;6.754;2023-11-21T08:23:56;66.65;;;28.48;;
28003;SDS011;15330;51.234;6.754;2023-11-21T08:26:22;70.13;;;30.52;;
28003;SDS011;15330;51.234;6.754;2023-11-21T08:28:47;80.70;;;32.78;;
28003;SDS011;15330;51.234;6.754;2023-11-21T08:31:13;81.80;;;33.20;;
28003;SDS011;15330;51.234;6.754;2023-11-21T08:33:38;78.82;;;32.17;;
28003;SDS011;15330;51.234;6.754;2023-11-21T08:36:07;89.60;;;33.80;;
28003;SDS011;15330;51.234;6.754;2023-11-21T08:38:33;76.93;;;30.45;;
28003;SDS011;15330;51.234;6.754;2023-11-21T08:41:02;80.90;;;33.38;;
28003;SDS011;15330;51.234;6.754;2023-11-21T08:43:33;87.57;;;33.45;;
28003;SDS011;15330;51.234;6.754;2023-11-21T08:46:04;77.07;;;32.08;;
28003;SDS011;15330;51.234;6.754;2023-11-21T08:48:31;78.97;;;31.00;;
28003;SDS011;15330;51.234;6.754;2023-11-21T08:50:56;76.10;;;31.42;;
28003;SDS011;15330;51.234;6.754;2023-11-21T08:53:21;80.82;;;30.77;;
28003;SDS011;15330;51.234;6.754;2023-11-21T08:55:47;89.80;;;34.03;;
28003;SDS011;15330;51.234;6.754;2023-11-21T08:58:13;88.00;;;33.47;;
28003;SDS011;15330;51.234;6.754;2023-11-21T09:00:39;81.43;;;33.08;;
28003;SDS011;15330;51.234;6.754;2023-11-21T09:03:05;74.93;;;31.27;;
28003;SDS011;15330;51.234;6.754;2023-11-21T09:05:33;87.03;;;31.45;;
28003;SDS011;15330;51.234;6.754;2023-11-21T09:07:59;83.18;;;34.47;;
28003;SDS011;15330;51.234;6.754;2023-11-21T09:10:24;84.43;;;33.92;;
28003;SDS011;15330;51.234;6.754;2023-11-21T09:12:50;76.20;;;32.55;;
28003;SDS011;15330;51.234;6.754;2023-11-21T09:15:17;84.20;;;34.20;;
28003;SDS011;15330;51.234;6.754;2023-11-21T09:17:42;81.13;;;33.88;;
28003;SDS011;15330;51.234;6.754;2023-11-21T09:20:09;90.53;;;34.42;;
28003;SDS011;15330;51.234;6.754;2023-11-21T09:22:35;83.53;;;32.83;;
28003;SDS011;15330;51.234;6.754;2023-11-21T09:25:01;83.05;;;33.35;;
28003;SDS011;15330;51.234;6.754;2023-11-21T09:27:30;87.97;;;34.28;;
28003;SDS011;15330;51.234;6.754;2023-11-21T09:29:56;86.93;;;34.00;;
28003;SDS011;15330;51.234;6.754;2023-11-21T09:32:23;87.07;;;33.53;;
28003;SDS011;15330;51.234;6.754;2023-11-21T09:34:48;76.43;;;31.77;;
28003;SDS011;15330;51.234;6.754;2023-11-21T09:37:15;77.50;;;32.92;;
28003;SDS011;15330;51.234;6.754;2023-11-21T09:39:40;79.75;;;32.15;;
28003;SDS011;15330;51.234;6.754;2023-11-21T09:44:36;80.53;;;30.80;;
28003;SDS011;15330;51.234;6.754;2023-11-21T09:47:08;84.53;;;33.72;;
28003;SDS011;15330;51.234;6.754;2023-11-21T09:49:35;84.18;;;31.48;;
28003;SDS011;15330;51.234;6.754;2023-11-21T09:52:02;83.05;;;33.88;;
28003;SDS011;15330;51.234;6.754;2023-11-21T09:54:29;84.18;;;33.55;;
28003;SDS011;15330;51.234;6.754;2023-11-21T09:56:54;81.05;;;32.75;;
28003;SDS011;15330;51.234;6.754;2023-11-21T09:59:20;85.70;;;34.70;;
28003;SDS011;15330;51.234;6.754;2023-11-21T10:01:46;73.57;;;31.38;;
28003;SDS011;15330;51.234;6.754;2023-11-21T10:04:12;75.55;;;31.58;;
28003;SDS011;15330;51.234;6.754;2023-11-21T10:06:41;78.28;;;31.63;;
28003;SDS011;15330;51.234;6.754;2023-11-21T10:09:10;76.65;;;31.90;;
28003;SDS011;15330;51.234;6.754;2023-11-21T10:11:43;73.95;;;31.42;;
28003;SDS011;15330;51.234;6.754;2023-11-21T10:14:11;78.45;;;32.85;;
28003;SDS011;15330;51.234;6.754;2023-11-21T10:16:40;76.60;;;31.30;;
28003;SDS011;15330;51.234;6.754;2023-11-21T10:19:08;67.55;;;30.40;;
28003;SDS011;15330;51.234;6.754;2023-11-21T10:21:35;76.53;;;31.02;;
28003;SDS011;15330;51.234;6.754;2023-11-21T10:24:02;74.63;;;30.77;;
28003;SDS011;15330;51.234;6.754;2023-11-21T10:26:28;81.63;;;31.92;;
28003;SDS011;15330;51.234;6.754;2023-11-21T10:28:59;76.68;;;31.88;;
28003;SDS011;15330;51.234;6.754;2023-11-21T10:31:32;70.25;;;30.67;;
28003;SDS011;15330;51.234;6.754;2023-11-21T10:34:12;68.30;;;28.63;;
28003;SDS011;15330;51.234;6.754;2023-11-21T10:36:41;63.97;;;26.13;;
28003;SDS011;15330;51.234;6.754;2023-11-21T10:39:07;56.97;;;24.30;;
28003;SDS011;15330;51.234;6.754;2023-11-21T10:41:33;62.47;;;27.42;;
28003;SDS011;15330;51.234;6.754;2023-11-21T10:44:00;65.63;;;26.15;;
28003;SDS011;15330;51.234;6.754;2023-11-21T10:46:26;63.35;;;27.02;;
28003;SDS011;15330;51.234;6.754;2023-11-21T10:48:53;58.20;;;24.73;;
28003;SDS011;15330;51.234;6.754;2023-11-21T10:51:21;60.53;;;25.48;;
28003;SDS011;15330;51.234;6.754;2023-11-21T10:53:47;55.55;;;25.10;;
28003;SDS011;15330;51.234;6.754;2023-11-21T10:56:15;52.83;;;24.55;;
28003;SDS011;15330;51.234;6.754;2023-11-21T10:58:44;60.08;;;23.95;;
28003;SDS011;15330;51.234;6.754;2023-11-21T11:01:10;57.95;;;25.35;;
28003;SDS011;15330;51.234;6.754;2023-11-21T11:03:37;61.67;;;25.63;;
28003;SDS011;15330;51.234;6.754;2023-11-21T11:06:03;63.30;;;27.38;;
28003;SDS011;15330;51.234;6.754;2023-11-21T11:08:30;60.65;;;26.55;;
28003;SDS011;15330;51.234;6.754;2023-11-21T11:10:56;68.68;;;26.75;;
28003;SDS011;15330;51.234;6.754;2023-11-21T11:13:21;64.85;;;26.77;;
28003;SDS011;15330;51.234;6.754;2023-11-21T11:15:48;62.88;;;28.23;;
28003;SDS011;15330;51.234;6.754;2023-11-21T11:18:13;61.35;;;26.67;;
28003;SDS011;15330;51.234;6.754;2023-11-21T11:20:39;67.97;;;27.83;;
28003;SDS011;15330;51.234;6.754;2023-11-21T11:25:53;71.38;;;28.02;;
28003;SDS011;15330;51.234;6.754;2023-11-21T11:28:27;65.38;;;27.10;;
28003;SDS011;15330;51.234;6.754;2023-11-21T11:31:33;66.43;;;27.55;;
28003;SDS011;15330;51.234;6.754;2023-11-21T11:36:49;61.60;;;26.88;;
28003;SDS011;15330;51.234;6.754;2023-11-21T11:41:57;64.18;;;26.20;;
28003;SDS011;15330;51.234;6.754;2023-11-21T11:47:34;63.38;;;28.55;;
28003;SDS011;15330;51.234;6.754;2023-11-21T11:50:12;71.43;;;29.58;;
28003;SDS011;15330;51.234;6.754;2023-11-21T11:52:48;67.40;;;28.73;;
28003;SDS011;15330;51.234;6.754;2023-11-21T11:55:19;70.28;;;29.25;;
28003;SDS011;15330;51.234;6.754;2023-11-21T12:00:21;72.95;;;31.65;;
28003;SDS011;15330;51.234;6.754;2023-11-21T12:02:53;80.32;;;33.72;;
28003;SDS011;15330;51.234;6.754;2023-11-21T12:05:20;77.65;;;32.97;;
28003;SDS011;15330;51.234;6.754;2023-11-21T12:10:16;93.90;;;38.75;;
28003;SDS011;15330;51.234;6.754;2023-11-21T12:12:49;81.30;;;36.78;;
28003;SDS011;15330;51.234;6.754;2023-11-21T12:15:15;83.80;;;35.25;;
28003;SDS011;15330;51.234;6.754;2023-11-21T12:17:41;84.45;;;34.30;;
28003;SDS011;15330;51.234;6.754;2023-11-21T12:20:08;82.30;;;33.28;;
28003;SDS011;15330;51.234;6.754;2023-11-21T12:25:08;84.15;;;35.03;;
28003;SDS011;15330;51.234;6.754;2023-11-21T12:27:33;83.38;;;35.58;;
28003;SDS011;15330;51.234;6.754;2023-11-21T12:29:58;98.63;;;40.50;;
28003;SDS011;15330;51.234;6.754;2023-11-21T12:32:24;107.63;;;44.97;;
28003;SDS011;15330;51.234;6.754;2023-11-21T12:34:50;111.60;;;44.42;;
28003;SDS011;15330;51.234;6.754;2023-11-21T12:37:16;101.78;;;45.03;;
28003;SDS011;15330;51.234;6.754;2023-11-21T12:39:42;106.35;;;44.72;;
28003;SDS011;15330;51.234;6.754;2023-11-21T12:42:07;112.90;;;46.92;;
28003;SDS011;15330;51.234;6.754;2023-11-21T12:44:32;109.03;;;47.28;;
28003;SDS011;15330;51.234;6.754;2023-11-21T12:46:58;104.85;;;42.80;;
28003;SDS011;15330;51.234;6.754;2023-11-21T12:49:24;97.93;;;41.83;;
28003;SDS011;15330;51.234;6.754;2023-11-21T12:51:50;102.25;;;42.50;;
28003;SDS011;15330;51.234;6.754;2023-11-21T12:54:15;88.63;;;39.45;;
28003;SDS011;15330;51.234;6.754;2023-11-21T12:56:41;97.03;;;41.38;;
28003;SDS011;15330;51.234;6.754;2023-11-21T12:59:06;93.68;;;40.22;;
28003;SDS011;15330;51.234;6.754;2023-11-21T13:01:31;93.53;;;41.25;;
28003;SDS011;15330;51.234;6.754;2023-11-21T13:03:57;86.88;;;41.90;;
28003;SDS011;15330;51.234;6.754;2023-11-21T13:06:27;97.95;;;41.65;;
28003;SDS011;15330;51.234;6.754;2023-11-21T13:08:54;97.20;;;40.75;;
28003;SDS011;15330;51.234;6.754;2023-11-21T13:11:22;96.97;;;41.35;;
28003;SDS011;15330;51.234;6.754;2023-11-21T13:13:47;96.55;;;39.92;;
28003;SDS011;15330;51.234;6.754;2023-11-21T13:16:18;91.30;;;39.05;;
28003;SDS011;15330;51.234;6.754;2023-11-21T13:18:45;89.03;;;39.30;;
28003;SDS011;15330;51.234;6.754;2023-11-21T13:21:11;96.20;;;39.28;;
28003;SDS011;15330;51.234;6.754;2023-11-21T13:23:40;87.28;;;38.83;;
28003;SDS011;15330;51.234;6.754;2023-11-21T13:26:06;94.50;;;40.60;;
28003;SDS011;15330;51.234;6.754;2023-11-21T13:28:33;106.25;;;43.15;;
28003;SDS011;15330;51.234;6.754;2023-11-21T13:31:00;98.38;;;44.65;;
28003;SDS011;15330;51.234;6.754;2023-11-21T13:33:45;97.47;;;43.10;;
28003;SDS011;15330;51.234;6.754;2023-11-21T13:36:16;108.50;;;45.65;;
28003;SDS011;15330;51.234;6.754;2023-11-21T13:38:47;114.70;;;46.85;;
28003;SDS011;15330;51.234;6.754;2023-11-21T13:41:13;106.97;;;45.70;;
28003;SDS011;15330;51.234;6.754;2023-11-21T13:43:39;124.82;;;48.85;;
28003;SDS011;15330;51.234;6.754;2023-11-21T13:46:04;108.60;;;47.33;;
28003;SDS011;15330;51.234;6.754;2023-11-21T13:48:38;108.22;;;46.67;;
28003;SDS011;15330;51.234;6.754;2023-11-21T13:51:08;101.57;;;45.33;;
28003;SDS011;15330;51.234;6.754;2023-11-21T13:53:47;97.28;;;42.50;;
28003;SDS011;15330;51.234;6.754;2023-11-21T13:56:15;92.28;;;41.33;;
28003;SDS011;15330;51.234;6.754;2023-11-21T13:58:53;90.20;;;39.42;;
28003;SDS011;15330;51.234;6.754;2023-11-21T14:01:19;94.50;;;40.45;;
28003;SDS011;15330;51.234;6.754;2023-11-21T14:04:17;88.28;;;39.60;;
28003;SDS011;15330;51.234;6.754;2023-11-21T14:06:43;87.35;;;41.38;;
28003;SDS011;15330;51.234;6.754;2023-11-21T14:09:18;99.93;;;40.45;;
28003;SDS011;15330;51.234;6.754;2023-11-21T14:14:28;111.78;;;44.38;;
28003;SDS011;15330;51.234;6.754;2023-11-21T14:16:53;117.53;;;45.53;;
28003;SDS011;15330;51.234;6.754;2023-11-21T14:19:20;124.28;;;49.35;;
28003;SDS011;15330;51.234;6.754;2023-11-21T14:21:47;122.72;;;47.45;;
28003;SDS011;15330;51.234;6.754;2023-11-21T14:24:14;112.10;;;42.70;;
28003;SDS011;15330;51.234;6.754;2023-11-21T14:26:42;90.47;;;35.85;;
28003;SDS011;15330;51.234;6.754;2023-11-21T14:29:11;75.43;;;32.63;;
28003;SDS011;15330;51.234;6.754;2023-11-21T14:31:45;66.72;;;28.13;;
28003;SDS011;15330;51.234;6.754;2023-11-21T14:34:11;58.67;;;27.30;;
28003;SDS011;15330;51.234;6.754;2023-11-21T14:36:37;58.20;;;24.67;;
28003;SDS011;15330;51.234;6.754;2023-11-21T14:39:04;46.90;;;20.98;;
28003;SDS011;15330;51.234;6.754;2023-11-21T14:41:38;40.13;;;18.75;;
28003;SDS011;15330;51.234;6.754;2023-11-21T14:44:04;32.72;;;16.75;;